Skydive Austral Airstrip

MU-0002 · Rivière du Rempart, 毛里求斯

罗盘
风向 的 风向 160°
风: 4 kt, 2 beaufort

添加一条跑道以查看侧风和逆风信息。

添置 跑道
0 ft 1.000 2.000 3.000 4.000 5.000
Cloud Cloud
FEW 1.000
Cloud Cloud
FEW 1.300
Cloud Cloud Cloud Cloud
SCT 1.400
METAR FIMP 281000Z 16004KT 9999 VCSH FEW010 FEW013CB SCT014 28/25 Q1009

METAR Skydive Austral Airstrip - MU-0002

Skydive Austral Airstrip是,毛里求斯中的小机场。 该领域的国际民航组织标志是MU-0002.

这份报告是针对2023年1月28日 14:00, 当地时间在西沃萨古尔·拉姆古兰爵士国际机场进行的。

机场观察

风向为160°,速度为4 kt。

可见度为10 km 或者更多。

有几云在1.000 ft的高度, 几云 积雨云在1.300 ft的高度 和 疏云,零星散落的云朵在1.400 ft的高度。 没有观察到天花板。

当前天气为在附近 阵雨 。 温度和风寒是28 °C。 热指数为32。 露点为25 °C,相对湿度为84%。 海平面上的气压为1009 hPa (QNH)。

白天

今天,太阳从05:50升起,在18:53降落。 这适用于Skydive Austral Airstrip,世界夏令时可能有所不同。 当地时间与世界标准时间之间的时差为+4 小时。 当前,没有夏令时有效。

公司介绍

我们没有关于这个机场的公司信息。

体会

到Vliegles.nl去找飞行课程,跳伞和其他飞行体验。 浏览页面,了解Skydive Austral Airstrip附近所有可用的活动。 你也可以使用搜索功能来寻找你所在地附近的特定飞行课程、跳伞或其他飞行体验。

乌云

1.000 ft FEW 几云
1.300 ft FEW 几云 积雨云
1.400 ft SCT 疏云,零星散落的云朵

温度 & 天气

天气 在附近 阵雨
温度 28 °C
露点 25 °C
相对湿度 84%
热度指数 32 °C
Kp-index 1 (0-9)

白天

日出
05:50
中午
12:22
日落
18:54 (3:55)

小工具

你想在你的网站上有一个关于Skydive Austral Airstrip的当前航空天气(METAR)的小部件吗?

显示HTML代码

我们和第三方通过cookies跟踪您在我们网站上的互联网行为。如果你继续,我们认为你同意我们的饼干政策